Airfield :
LOGIN :

Register | Disclaimer

   EN    FR    IT 

 










Legend :    VFR   Marginal VFR   IFR   Intensive IFR   Very Intensive IFR
Visi :
Ceiling :
>= 8 km
>= 3000ft
5 to 8 km
1000 to 3000 ft
1500m to 5 km
500 to 1000 ft
800 to 1500m
200 to 500 ft
< 800m
< 200 ft
Symbols :   Thunderstorms  Fog  Heavy snow  Heavy precipitations  Wind > 20 kt
SIGMETs :     Misc.  Thunderstorms  Icing  Turbulence  Mountain Waves  Volcanic Ashes







- Airport Elevation : 16 ft
- IATA code : EAS


LESO - San Sebastian Fuenterrabia

CURRENT METAR :
  • 301400Z 16008KT 130V210 CAVOK 27/09 Q1018

EXPIRED METARs :
  • 301330Z 15012G22KT 110V200 CAVOK 26/06 Q1018
  • 301300Z 14013KT 100V160 CAVOK 26/06 Q1019
  • 301230Z 14009KT 080V200 CAVOK 26/07 Q1019
  • 301200Z 15008KT 110V200 CAVOK 26/08 Q1019
  • 301130Z 19012KT 150V240 CAVOK 25/05 Q1020

TAF TAF LESO
Valid from the 30 at 12:00 until the 31 at 12:00 UTC


301100Z 3012/3112 17012KT CAVOK TX24/3015Z TN10/3106Z
PROB40
TEMPO 3012/3015 17015G25KT
TEMPO 3018/3109 17017G30KT
PROB40
TEMPO 3103/3112 RA SHRA SCT020TCU
No reported NOTAMs for that airfield.



MET'MAP, your aeronautical weather chart ! - Copyright ORBIFLY December 2007 - Disclaimer

ORBIFLY MET'MAP TEAM :

Programming & Development : Alexandra Zaïnal
Concept & Development : Baudouin d'Aumeries
Co-Development & Prog : Marc-Olivier Méhu
Technical & hardware support : Manuel Goepfert

Contact : metmap@orbifly.com




SOURCES & CREDITS :

   NOAA